Time;durP1;ratioP1;P1;durP2;ratioP2;P2;SDS_P1;SDS_P2;PMS_P1;PMS_P2;Temp;Humidity;BMP_temperature;BMP_pressure;BME280_temperature;BME280_humidity;BME280_pressure;Samples;Min_cycle;Max_cycle;Signal;HPM_P1;HPM_P2
2023/03/10 00:02:16;;;;;;;36.08;24.60;;;12.20;99.50;;;;;;6159222;23;20074;-73
2023/03/10 00:04:42;;;;;;;32.80;23.77;;;12.20;99.50;;;;;;6185582;23;20494;-74
2023/03/10 00:07:07;;;;;;;39.58;24.00;;;12.20;99.50;;;;;;6185375;23;20005;-74
2023/03/10 00:09:33;;;;;;;32.33;23.67;;;12.10;99.50;;;;;;6185432;23;20001;-73
2023/03/10 00:11:59;;;;;;;32.38;23.83;;;12.10;99.50;;;;;;6185759;23;20001;-70
2023/03/10 00:14:24;;;;;;;31.20;22.90;;;12.10;99.60;;;;;;6185709;23;20493;-73
2023/03/10 00:16:50;;;;;;;33.40;23.55;;;12.10;99.60;;;;;;6185273;23;20020;-68
2023/03/10 00:19:16;;;;;;;29.70;22.55;;;12.10;99.60;;;;;;6185780;23;20001;-66
2023/03/10 00:21:41;;;;;;;31.23;23.73;;;12.10;99.70;;;;;;6185669;23;20005;-67
2023/03/10 00:24:08;;;;;;;30.55;22.83;;;12.10;99.70;;;;;;6185471;23;19997;-66
2023/03/10 00:26:36;;;;;;;35.28;23.13;;;12.00;99.70;;;;;;6185943;23;20009;-67
2023/03/10 00:29:02;;;;;;;31.38;22.27;;;12.00;99.70;;;;;;6186251;23;20025;-68
2023/03/10 00:31:30;;;;;;;33.67;24.00;;;12.00;99.60;;;;;;6185430;23;20316;-67
2023/03/10 00:33:56;;;;;;;37.85;23.45;;;12.00;99.60;;;;;;6185803;23;19997;-67
2023/03/10 00:36:24;;;;;;;34.00;22.38;;;11.90;99.70;;;;;;6185626;23;20091;-67
2023/03/10 00:38:51;;;;;;;32.60;23.50;;;11.90;99.70;;;;;;6185283;23;20020;-66
2023/03/10 00:41:25;;;;;;;30.52;21.33;;;11.90;99.60;;;;;;6185694;23;20008;-68
2023/03/10 00:43:51;;;;;;;30.40;21.63;;;11.90;99.70;;;;;;6185629;23;20008;-66
2023/03/10 00:46:18;;;;;;;31.65;21.80;;;11.80;99.70;;;;;;6185413;23;20012;-67
2023/03/10 00:48:43;;;;;;;28.38;19.55;;;11.80;99.70;;;;;;6185743;23;20435;-67
2023/03/10 00:51:09;;;;;;;30.15;18.80;;;11.80;99.70;;;;;;6186139;23;20036;-67
2023/03/10 00:53:38;;;;;;;26.05;17.00;;;11.80;99.80;;;;;;6185717;23;20061;-67
2023/03/10 00:56:05;;;;;;;29.95;19.63;;;11.80;99.80;;;;;;6185358;23;20005;-67
2023/03/10 00:58:31;;;;;;;27.30;18.10;;;11.70;99.80;;;;;;6185994;23;20009;-67
2023/03/10 01:00:57;;;;;;;28.70;18.60;;;11.70;99.70;;;;;;6185657;23;20482;-67
2023/03/10 01:03:24;;;;;;;24.38;17.52;;;11.70;99.60;;;;;;6185510;23;20005;-67
2023/03/10 01:05:51;;;;;;;25.35;17.65;;;11.70;99.70;;;;;;6185540;23;20447;-67
2023/03/10 01:08:18;;;;;;;22.48;16.67;;;11.70;99.70;;;;;;6185358;23;20431;-67
2023/03/10 01:10:44;;;;;;;29.52;18.23;;;11.70;99.70;;;;;;6185734;23;20335;-67
2023/03/10 01:13:11;;;;;;;22.80;15.40;;;11.60;99.70;;;;;;6185521;23;20431;-66
2023/03/10 01:15:37;;;;;;;24.13;15.57;;;11.60;99.70;;;;;;6185440;23;20008;-67
2023/03/10 01:18:04;;;;;;;27.85;16.67;;;11.60;99.70;;;;;;6185140;23;20459;-67
2023/03/10 01:20:31;;;;;;;23.60;16.05;;;11.60;99.70;;;;;;6185306;23;20008;-66
2023/03/10 01:22:57;;;;;;;22.85;15.88;;;11.60;99.80;;;;;;6185283;23;20001;-67
2023/03/10 01:25:23;;;;;;;23.60;15.10;;;11.60;99.90;;;;;;6185406;23;20005;-67
2023/03/10 01:27:49;;;;;;;24.33;14.98;;;11.50;99.90;;;;;;6185729;23;20033;-67
2023/03/10 01:30:15;;;;;;;21.70;14.32;;;11.50;99.80;;;;;;6185179;23;19997;-67
2023/03/10 01:32:41;;;;;;;23.58;14.13;;;11.50;99.80;;;;;;6185151;23;20005;-68
2023/03/10 01:35:07;;;;;;;20.95;12.32;;;11.50;99.90;;;;;;6158723;23;20008;-66
2023/03/10 01:37:33;;;;;;;24.20;14.57;;;11.50;99.90;;;;;;6185244;23;20403;-67
2023/03/10 01:40:00;;;;;;;23.15;13.30;;;11.50;99.90;;;;;;6185132;23;19997;-66
2023/03/10 01:42:26;;;;;;;20.17;12.07;;;11.50;99.90;;;;;;6184945;23;20001;-66
2023/03/10 01:45:21;;;;;;;18.73;12.00;;;11.40;99.80;;;;;;6184976;23;20001;-67
2023/03/10 01:47:47;;;;;;;20.25;12.70;;;11.40;99.80;;;;;;6080082;23;20023;-67
2023/03/10 01:50:16;;;;;;;20.77;12.38;;;11.40;99.80;;;;;;6185215;23;20088;-66
2023/03/10 01:52:47;;;;;;;15.93;10.98;;;11.40;99.80;;;;;;6184946;23;20005;-67
2023/03/10 01:55:20;;;;;;;16.23;10.80;;;11.40;99.80;;;;;;6185261;23;20032;-67
2023/03/10 01:57:51;;;;;;;18.35;11.25;;;11.40;99.80;;;;;;6183973;23;20118;-67
2023/03/10 02:00:18;;;;;;;14.90;10.13;;;11.40;99.70;;;;;;6155468;23;20383;-67
2023/03/10 02:03:07;;;;;;;20.25;11.48;;;11.30;99.80;;;;;;6181873;23;20005;-69
2023/03/10 02:05:39;;;;;;;21.83;10.90;;;11.30;99.70;;;;;;6183915;23;20012;-69
2023/03/10 02:08:06;;;;;;;23.15;11.20;;;11.30;99.80;;;;;;6184986;23;20067;-67
2023/03/10 02:10:32;;;;;;;21.83;10.95;;;11.30;99.80;;;;;;6184756;23;20431;-72
2023/03/10 02:12:58;;;;;;;18.23;9.85;;;11.30;99.90;;;;;;6184148;23;20005;-74
2023/03/10 02:15:24;;;;;;;17.85;9.98;;;11.30;99.90;;;;;;6184104;23;19999;-74
2023/03/10 02:17:51;;;;;;;17.70;9.68;;;11.30;99.90;;;;;;6184312;23;20049;-76
2023/03/10 02:20:26;;;;;;;18.40;9.43;;;11.30;99.90;;;;;;6183917;23;20001;-74
2023/03/10 02:22:53;;;;;;;17.63;9.55;;;11.30;99.90;;;;;;6185137;23;20005;-69
2023/03/10 02:25:37;;;;;;;17.58;9.80;;;11.20;99.90;;;;;;6184788;23;20007;-71
2023/03/10 02:28:03;;;;;;;18.63;8.95;;;11.20;99.80;;;;;;6184088;23;20008;-67
2023/03/10 02:30:35;;;;;;;18.00;8.57;;;11.20;99.90;;;;;;6184743;23;20432;-73
2023/03/10 02:33:05;;;;;;;15.73;8.53;;;11.20;99.90;;;;;;6183425;23;20009;-69
2023/03/10 02:35:31;;;;;;;21.98;8.80;;;11.20;99.90;;;;;;6184708;23;20225;-70
2023/03/10 02:37:57;;;;;;;15.70;9.82;;;11.20;99.90;;;;;;6185025;23;20021;-70
2023/03/10 02:40:36;;;;;;;14.48;8.68;;;11.20;99.90;;;;;;6184822;23;20001;-71
2023/03/10 02:43:05;;;;;;;15.93;8.93;;;11.20;99.90;;;;;;6184276;23;20051;-70
2023/03/10 02:45:34;;;;;;;17.35;8.15;;;11.20;99.90;;;;;;6184528;23;20424;-68
2023/03/10 02:48:00;;;;;;;18.48;9.27;;;11.20;99.90;;;;;;6184212;23;20003;-69
2023/03/10 02:50:30;;;;;;;15.52;8.13;;;11.10;99.90;;;;;;6184159;23;20005;-68
2023/03/10 02:53:06;;;;;;;18.58;8.90;;;11.10;99.90;;;;;;6184360;23;19997;-71
2023/03/10 02:55:32;;;;;;;15.93;8.43;;;11.10;99.70;;;;;;6184200;23;20020;-67
2023/03/10 02:58:01;;;;;;;17.77;9.25;;;11.10;99.70;;;;;;6184721;23;20016;-68
2023/03/10 03:00:27;;;;;;;17.05;8.80;;;11.00;99.60;;;;;;6185149;23;20001;-67
2023/03/10 03:02:53;;;;;;;24.38;10.27;;;11.00;99.60;;;;;;6184976;23;20071;-70
2023/03/10 03:05:19;;;;;;;17.65;10.18;;;11.00;99.60;;;;;;6184768;23;20420;-68
2023/03/10 03:07:44;;;;;;;17.50;9.80;;;11.00;99.70;;;;;;6183437;23;20009;-68
2023/03/10 03:10:11;;;;;;;17.33;8.88;;;11.00;99.70;;;;;;6184679;23;20001;-68
2023/03/10 03:12:37;;;;;;;23.52;11.48;;;11.00;99.90;;;;;;6184007;23;20392;-69
2023/03/10 03:15:03;;;;;;;17.23;10.20;;;11.00;99.70;;;;;;6184278;23;20063;-69
2023/03/10 03:17:29;;;;;;;16.67;10.00;;;11.00;99.60;;;;;;6184586;23;20009;-72
2023/03/10 03:19:55;;;;;;;14.30;9.30;;;10.90;99.50;;;;;;6185160;23;20004;-67
2023/03/10 03:22:21;;;;;;;19.77;10.13;;;10.90;99.60;;;;;;6186410;23;20312;-72
2023/03/10 03:24:47;;;;;;;13.82;9.57;;;10.90;99.60;;;;;;6186345;23;20031;-75
2023/03/10 03:27:13;;;;;;;17.25;10.68;;;10.90;99.70;;;;;;6186711;23;20016;-67
2023/03/10 03:29:39;;;;;;;20.95;10.30;;;10.90;99.60;;;;;;6185944;23;20001;-70
2023/03/10 03:32:05;;;;;;;18.75;10.55;;;10.80;99.60;;;;;;6185769;23;20000;-66
2023/03/10 03:34:31;;;;;;;17.80;9.43;;;10.80;99.50;;;;;;6186231;23;20450;-68
2023/03/10 03:36:57;;;;;;;15.77;8.77;;;10.80;99.50;;;;;;6186224;23;20008;-66
2023/03/10 03:39:22;;;;;;;15.93;8.30;;;10.80;99.50;;;;;;6186322;23;20000;-66
2023/03/10 03:41:52;;;;;;;15.77;8.15;;;10.80;99.60;;;;;;6186336;23;20001;-66
2023/03/10 03:44:18;;;;;;;14.80;7.78;;;10.70;99.60;;;;;;6186487;23;20027;-67
2023/03/10 03:46:44;;;;;;;19.92;8.55;;;10.70;99.60;;;;;;6185931;23;20020;-67
2023/03/10 03:49:10;;;;;;;18.02;7.85;;;10.70;99.70;;;;;;6186087;23;20001;-66
2023/03/10 03:51:36;;;;;;;16.33;8.52;;;10.70;99.70;;;;;;6186465;23;20063;-67
2023/03/10 03:54:02;;;;;;;16.25;7.18;;;10.70;99.80;;;;;;6186331;23;20080;-66
2023/03/10 03:56:28;;;;;;;18.17;7.78;;;10.70;99.70;;;;;;6185837;23;20071;-67
2023/03/10 03:58:54;;;;;;;15.90;7.85;;;10.70;99.70;;;;;;6186002;23;20005;-66
2023/03/10 04:01:20;;;;;;;19.27;6.82;;;10.70;99.70;;;;;;6186055;23;20025;-66
2023/03/10 04:03:45;;;;;;;13.95;6.85;;;10.70;99.80;;;;;;6186399;23;20005;-67
2023/03/10 04:06:11;;;;;;;15.75;6.90;;;10.60;99.70;;;;;;6185874;23;20008;-66
2023/03/10 04:08:37;;;;;;;15.18;7.40;;;10.60;99.70;;;;;;6185942;23;20005;-68
2023/03/10 04:11:03;;;;;;;13.60;6.82;;;10.70;99.70;;;;;;6185808;23;20434;-67
2023/03/10 04:13:28;;;;;;;17.88;7.63;;;10.60;99.60;;;;;;6185841;23;20085;-68
2023/03/10 04:15:58;;;;;;;14.00;7.85;;;10.60;99.40;;;;;;6185776;23;20024;-67
2023/03/10 04:18:24;;;;;;;15.38;7.45;;;10.60;99.40;;;;;;6185814;23;20072;-67
2023/03/10 04:20:50;;;;;;;17.50;8.65;;;10.60;99.40;;;;;;6185888;23;20047;-67
2023/03/10 04:23:15;;;;;;;12.48;8.10;;;10.50;99.20;;;;;;6185636;23;20167;-67
2023/03/10 04:25:42;;;;;;;16.90;9.20;;;10.50;99.10;;;;;;6185939;23;20009;-67
2023/03/10 04:28:08;;;;;;;17.27;8.95;;;10.40;99.00;;;;;;6185792;23;20001;-67
2023/03/10 04:30:34;;;;;;;16.90;9.20;;;10.40;99.00;;;;;;6185613;23;20015;-67
2023/03/10 04:33:00;;;;;;;15.18;8.90;;;10.40;99.10;;;;;;6186132;23;20072;-67
2023/03/10 04:35:27;;;;;;;15.45;8.07;;;10.40;99.10;;;;;;6185965;23;20005;-67
2023/03/10 04:37:53;;;;;;;14.00;8.23;;;10.30;99.00;;;;;;6185818;23;20505;-67
2023/03/10 04:40:19;;;;;;;15.98;8.07;;;10.30;99.10;;;;;;6185767;23;20001;-67
2023/03/10 04:42:45;;;;;;;18.73;7.65;;;10.30;99.10;;;;;;6185957;23;20320;-67
2023/03/10 04:45:11;;;;;;;15.52;7.85;;;10.30;99.20;;;;;;6185454;23;20007;-66
2023/03/10 04:47:37;;;;;;;13.27;7.70;;;10.30;99.10;;;;;;6185588;23;20011;-67
2023/03/10 04:50:05;;;;;;;14.35;7.55;;;10.30;99.20;;;;;;6185707;23;20323;-66
2023/03/10 04:52:31;;;;;;;15.60;8.52;;;10.30;99.10;;;;;;6185400;23;20387;-67
2023/03/10 04:54:56;;;;;;;16.42;8.50;;;10.30;99.00;;;;;;6185482;23;20009;-68
2023/03/10 04:57:23;;;;;;;13.95;7.95;;;10.20;99.00;;;;;;6185721;23;20106;-67
2023/03/10 04:59:49;;;;;;;13.00;7.68;;;10.20;99.00;;;;;;6186068;23;20000;-67
2023/03/10 05:02:16;;;;;;;14.23;7.90;;;10.20;99.00;;;;;;6185876;23;20372;-67
2023/03/10 05:04:42;;;;;;;13.63;7.15;;;10.10;98.90;;;;;;6185565;23;19997;-67
2023/03/10 05:07:07;;;;;;;11.50;6.43;;;10.10;99.20;;;;;;6185558;23;20016;-67
2023/03/10 05:09:36;;;;;;;12.95;6.78;;;10.10;98.90;;;;;;6185439;23;20032;-67
2023/03/10 05:12:04;;;;;;;11.55;7.10;;;10.10;98.90;;;;;;6185464;23;20001;-67
2023/03/10 05:14:29;;;;;;;13.23;6.90;;;10.00;99.00;;;;;;6185329;23;20001;-67
2023/03/10 05:16:55;;;;;;;14.75;6.90;;;10.00;98.90;;;;;;6185413;23;20084;-66
2023/03/10 05:19:21;;;;;;;12.73;7.35;;;10.00;98.90;;;;;;6185442;23;20004;-66
2023/03/10 05:21:47;;;;;;;13.45;7.20;;;10.00;99.00;;;;;;6185855;23;20079;-67
2023/03/10 05:24:13;;;;;;;11.63;6.82;;;10.00;99.10;;;;;;6185537;23;20001;-67
2023/03/10 05:26:39;;;;;;;15.73;6.50;;;9.90;99.10;;;;;;6185412;23;20063;-67
2023/03/10 05:29:05;;;;;;;19.43;6.40;;;9.90;99.20;;;;;;6185454;23;19997;-67
2023/03/10 05:31:30;;;;;;;16.33;6.93;;;9.90;99.30;;;;;;6185276;23;20031;-67
2023/03/10 05:33:56;;;;;;;11.68;7.88;;;9.90;99.30;;;;;;6185978;23;20021;-75
2023/03/10 05:36:22;;;;;;;11.73;7.30;;;9.90;99.30;;;;;;6185589;23;20013;-76
2023/03/10 05:38:49;;;;;;;12.33;6.33;;;10.00;99.50;;;;;;6184549;23;19997;-72
2023/03/10 05:41:15;;;;;;;12.85;6.57;;;9.90;99.60;;;;;;6184356;23;20005;-76
2023/03/10 05:43:41;;;;;;;17.63;6.80;;;10.00;99.70;;;;;;6184721;23;19997;-67
2023/03/10 05:46:07;;;;;;;10.90;6.07;;;10.00;99.70;;;;;;6185014;23;20427;-67
2023/03/10 05:48:33;;;;;;;19.88;6.60;;;10.00;99.80;;;;;;6185022;23;20001;-78
2023/03/10 05:51:01;;;;;;;13.50;6.43;;;10.00;99.80;;;;;;6184274;23;20005;-68
2023/03/10 05:53:28;;;;;;;11.90;6.05;;;10.00;99.90;;;;;;6185331;23;20001;-71
2023/03/10 05:55:54;;;;;;;13.27;5.65;;;10.10;99.90;;;;;;6184925;23;19997;-75
2023/03/10 05:58:21;;;;;;;19.30;5.63;;;10.10;99.90;;;;;;6184906;23;20005;-75
2023/03/10 06:00:46;;;;;;;17.70;6.07;;;10.10;99.90;;;;;;6185113;23;20059;-75
2023/03/10 06:03:12;;;;;;;17.95;5.57;;;10.10;99.90;;;;;;6183247;23;20009;-76
2023/03/10 06:05:38;;;;;;;16.15;6.10;;;10.20;99.90;;;;;;6184622;23;20032;-71
2023/03/10 06:08:04;;;;;;;16.77;6.20;;;10.30;99.90;;;;;;6184890;23;20327;-70
2023/03/10 06:10:30;;;;;;;12.43;5.40;;;10.30;99.90;;;;;;6184994;23;20001;-73
2023/03/10 06:12:56;;;;;;;11.95;4.82;;;10.30;99.90;;;;;;6184895;23;20368;-70
2023/03/10 06:15:21;;;;;;;14.68;5.07;;;10.30;99.90;;;;;;6184954;23;20007;-70
2023/03/10 06:17:47;;;;;;;22.13;5.50;;;10.30;99.90;;;;;;6184791;23;20009;-70
2023/03/10 06:20:14;;;;;;;18.35;4.78;;;10.40;99.90;;;;;;6183640;23;20009;-68
2023/03/10 06:22:40;;;;;;;18.75;5.32;;;10.40;99.90;;;;;;6158446;23;20420;-67
2023/03/10 06:25:06;;;;;;;16.23;5.10;;;10.40;99.90;;;;;;6185095;23;20004;-68
2023/03/10 06:27:32;;;;;;;15.05;5.00;;;10.40;99.90;;;;;;6184881;23;20099;-73
2023/03/10 06:29:58;;;;;;;22.50;4.70;;;10.50;99.90;;;;;;6184892;23;20063;-73
2023/03/10 06:32:24;;;;;;;12.82;4.72;;;10.50;99.90;;;;;;6184948;23;20055;-75
2023/03/10 06:34:50;;;;;;;16.90;4.60;;;10.50;99.90;;;;;;6184866;23;20052;-76
2023/03/10 06:37:15;;;;;;;20.08;5.40;;;10.60;99.90;;;;;;6184416;23;20079;-77
2023/03/10 06:39:41;;;;;;;17.15;4.68;;;10.60;99.90;;;;;;6184220;23;20052;-73
2023/03/10 06:42:07;;;;;;;13.30;4.50;;;10.60;99.90;;;;;;6184401;23;20039;-71
2023/03/10 06:44:34;;;;;;;25.85;5.70;;;10.70;99.90;;;;;;6184719;23;20008;-68
2023/03/10 06:47:03;;;;;;;20.77;5.10;;;10.70;99.90;;;;;;6184622;23;20135;-70
2023/03/10 06:49:30;;;;;;;13.80;3.80;;;10.80;99.90;;;;;;6184896;23;20002;-69
2023/03/10 06:51:56;;;;;;;12.93;4.60;;;10.80;99.90;;;;;;6183972;23;20005;-70
2023/03/10 06:54:22;;;;;;;16.35;4.93;;;10.80;99.90;;;;;;6185495;23;20035;-76
2023/03/10 06:56:48;;;;;;;19.42;5.43;;;10.90;99.90;;;;;;6186672;23;20013;-74
2023/03/10 06:59:14;;;;;;;15.20;5.40;;;10.90;99.90;;;;;;6186508;23;20332;-68
2023/03/10 07:01:41;;;;;;;19.77;6.10;;;10.90;99.90;;;;;;6186539;23;20001;-67
2023/03/10 07:04:06;;;;;;;15.68;7.63;;;10.90;99.90;;;;;;6186382;23;20436;-68
2023/03/10 07:06:33;;;;;;;21.77;8.18;;;11.00;99.90;;;;;;6186149;23;20028;-67
2023/03/10 07:08:59;;;;;;;16.70;8.43;;;11.00;99.90;;;;;;6187894;23;20434;-66
2023/03/10 07:11:25;;;;;;;20.83;8.48;;;11.10;99.90;;;;;;6186733;23;20009;-67
2023/03/10 07:13:51;;;;;;;22.52;8.00;;;11.10;99.90;;;;;;6186437;23;20005;-66
2023/03/10 07:16:17;;;;;;;20.25;7.80;;;11.20;99.90;;;;;;6186290;23;20009;-67
2023/03/10 07:18:43;;;;;;;17.50;8.02;;;11.20;99.90;;;;;;6186205;23;20008;-69
2023/03/10 07:21:10;;;;;;;23.80;8.35;;;11.20;99.90;;;;;;6186293;23;19997;-67
2023/03/10 07:23:37;;;;;;;17.17;7.88;;;11.30;99.90;;;;;;6186439;23;19997;-68
2023/03/10 07:26:06;;;;;;;15.48;7.78;;;11.30;99.90;;;;;;6186123;23;20001;-66
2023/03/10 07:28:33;;;;;;;19.75;8.32;;;11.40;99.90;;;;;;6185793;23;20415;-68
2023/03/10 07:31:03;;;;;;;26.08;8.23;;;11.40;99.90;;;;;;6186155;23;20000;-65
2023/03/10 07:33:28;;;;;;;24.35;8.43;;;11.40;99.90;;;;;;6186503;23;20001;-69
2023/03/10 07:35:54;;;;;;;25.98;7.18;;;11.50;99.90;;;;;;6186049;23;20005;-68
2023/03/10 07:38:20;;;;;;;20.02;6.20;;;11.60;99.90;;;;;;6185436;23;20017;-66
2023/03/10 07:40:46;;;;;;;17.20;6.00;;;11.60;99.90;;;;;;6186076;23;20001;-67
2023/03/10 07:43:11;;;;;;;13.02;5.78;;;11.70;99.90;;;;;;6186479;23;20005;-67
2023/03/10 07:45:37;;;;;;;18.58;5.97;;;11.70;99.90;;;;;;6185916;23;20382;-67
2023/03/10 07:48:03;;;;;;;22.30;5.63;;;11.80;99.90;;;;;;6186393;23;20011;-67
2023/03/10 07:50:29;;;;;;;14.10;4.05;;;11.90;99.90;;;;;;6185903;23;20004;-68
2023/03/10 07:52:55;;;;;;;19.08;4.60;;;11.90;99.90;;;;;;6185570;23;20001;-68
2023/03/10 07:55:21;;;;;;;18.85;4.18;;;12.00;99.90;;;;;;6186109;23;20005;-67
2023/03/10 07:57:47;;;;;;;17.80;3.80;;;12.00;99.90;;;;;;6186083;23;20016;-67
2023/03/10 08:00:14;;;;;;;17.90;3.60;;;12.10;99.90;;;;;;6185998;23;20001;-67
2023/03/10 08:02:40;;;;;;;15.88;3.83;;;12.10;99.90;;;;;;6186436;23;20084;-67
2023/03/10 08:05:07;;;;;;;12.65;3.42;;;12.20;99.90;;;;;;6186195;23;20007;-67
2023/03/10 08:07:33;;;;;;;14.55;4.30;;;12.20;99.90;;;;;;6159734;23;20423;-68
2023/03/10 08:09:58;;;;;;;18.05;4.35;;;12.30;99.90;;;;;;6186306;23;20004;-67
2023/03/10 08:12:24;;;;;;;26.83;4.75;;;12.30;99.90;;;;;;6185425;23;20005;-67
2023/03/10 08:14:51;;;;;;;15.85;4.25;;;12.40;99.90;;;;;;6185338;23;20008;-67
2023/03/10 08:17:17;;;;;;;19.48;4.45;;;12.40;99.90;;;;;;6185650;23;20020;-67
2023/03/10 08:19:43;;;;;;;15.63;3.70;;;12.50;99.90;;;;;;6185388;23;19997;-67
2023/03/10 08:22:09;;;;;;;16.10;4.13;;;12.50;99.90;;;;;;6185566;23;20009;-67
2023/03/10 08:24:37;;;;;;;18.65;3.85;;;12.60;99.90;;;;;;6185618;23;20005;-64
2023/03/10 08:27:03;;;;;;;15.73;3.88;;;12.70;99.80;;;;;;6186024;23;20005;-67
2023/03/10 08:29:29;;;;;;;14.13;3.50;;;12.80;99.70;;;;;;6186202;23;20331;-67
2023/03/10 08:31:55;;;;;;;15.43;3.17;;;12.80;99.70;;;;;;6186020;23;20444;-67
2023/03/10 08:34:21;;;;;;;16.25;3.92;;;13.00;99.30;;;;;;6186141;23;20029;-67
2023/03/10 08:36:46;;;;;;;13.40;2.90;;;13.00;99.00;;;;;;6185485;23;20017;-67
2023/03/10 08:39:12;;;;;;;18.73;3.15;;;13.10;98.60;;;;;;6185574;23;20052;-68
2023/03/10 08:41:47;;;;;;;12.30;2.92;;;13.10;98.10;;;;;;6185989;23;20005;-67
2023/03/10 08:44:16;;;;;;;13.75;2.85;;;13.10;97.80;;;;;;6159605;23;20084;-67
2023/03/10 08:46:47;;;;;;;8.93;2.38;;;13.20;97.50;;;;;;6185062;23;20020;-67
2023/03/10 08:49:14;;;;;;;16.08;2.90;;;13.20;97.20;;;;;;6185379;23;20423;-68
2023/03/10 08:51:40;;;;;;;16.20;3.10;;;13.20;97.10;;;;;;6185539;23;20319;-68
2023/03/10 08:54:07;;;;;;;14.30;3.28;;;13.20;97.10;;;;;;6185347;23;20424;-68
2023/03/10 08:56:33;;;;;;;11.10;3.25;;;13.20;97.00;;;;;;6185183;23;20499;-68
2023/03/10 08:58:59;;;;;;;10.38;2.97;;;13.20;97.00;;;;;;6185729;23;20020;-68
2023/03/10 09:01:35;;;;;;;17.50;3.97;;;13.20;97.00;;;;;;6185633;23;20404;-76
2023/03/10 09:04:03;;;;;;;19.15;3.92;;;13.20;97.00;;;;;;6185623;23;20001;-76
2023/03/10 09:06:29;;;;;;;14.43;3.15;;;13.20;97.00;;;;;;6185586;23;19997;-74
2023/03/10 09:08:55;;;;;;;15.90;3.67;;;13.20;97.30;;;;;;6185173;23;20009;-76
2023/03/10 09:11:27;;;;;;;17.80;2.90;;;13.20;96.90;;;;;;6184895;23;19997;-73
2023/03/10 09:13:53;;;;;;;12.43;2.78;;;13.20;96.80;;;;;;6185079;23;20094;-75
2023/03/10 09:16:19;;;;;;;13.05;2.83;;;13.30;96.70;;;;;;6184978;23;20111;-75
2023/03/10 09:18:46;;;;;;;12.73;3.15;;;13.30;96.60;;;;;;6183781;23;20027;-76
2023/03/10 09:21:14;;;;;;;15.40;2.95;;;13.30;96.60;;;;;;6185612;23;20009;-73
2023/03/10 09:23:42;;;;;;;10.73;2.63;;;13.30;96.60;;;;;;6185681;23;20031;-73
2023/03/10 09:26:08;;;;;;;9.88;2.58;;;13.30;96.60;;;;;;6185499;23;20375;-73
2023/03/10 09:28:34;;;;;;;14.38;2.75;;;13.30;96.70;;;;;;6157620;23;20035;-74
2023/03/10 09:31:02;;;;;;;17.98;3.00;;;13.30;96.60;;;;;;6184082;23;20001;-74
2023/03/10 09:33:28;;;;;;;13.75;3.63;;;13.30;96.30;;;;;;6184384;23;20011;-74
2023/03/10 09:35:56;;;;;;;9.05;2.47;;;13.30;96.10;;;;;;6185030;23;20080;-74
2023/03/10 09:38:22;;;;;;;14.65;2.83;;;13.30;96.00;;;;;;6185451;23;20498;-74
2023/03/10 09:41:15;;;;;;;11.88;2.63;;;13.40;96.10;;;;;;6185537;23;20044;-75
2023/03/10 09:43:49;;;;;;;12.65;2.72;;;13.40;96.20;;;;;;6185251;23;20009;-75
2023/03/10 09:46:21;;;;;;;18.17;3.15;;;13.40;96.10;;;;;;6185084;23;20387;-74
2023/03/10 09:49:02;;;;;;;15.88;3.38;;;13.50;96.30;;;;;;6185452;23;20024;-73
2023/03/10 09:51:28;;;;;;;13.80;2.95;;;13.50;96.30;;;;;;6185761;23;20001;-68
2023/03/10 09:54:06;;;;;;;13.88;3.50;;;13.50;96.30;;;;;;6184542;23;20072;-68
2023/03/10 09:56:34;;;;;;;14.38;3.40;;;13.50;96.40;;;;;;6184864;23;20041;-68
2023/03/10 09:59:20;;;;;;;11.05;2.92;;;13.50;96.40;;;;;;6185113;23;20052;-69
2023/03/10 10:01:48;;;;;;;21.83;3.58;;;13.50;96.40;;;;;;6185055;23;20033;-74
2023/03/10 10:04:38;;;;;;;11.60;2.80;;;13.60;96.40;;;;;;6184285;23;20001;-74
2023/03/10 10:07:14;;;;;;;11.23;3.05;;;13.60;96.40;;;;;;6184981;23;20005;-74
2023/03/10 10:09:46;;;;;;;16.02;3.60;;;13.60;96.30;;;;;;6185310;23;20024;-75
2023/03/10 10:12:17;;;;;;;17.35;4.25;;;13.60;96.20;;;;;;6184874;23;20036;-72
2023/03/10 10:14:44;;;;;;;14.88;4.72;;;13.70;96.00;;;;;;6184863;23;20001;-71
2023/03/10 10:17:13;;;;;;;18.92;3.30;;;13.60;96.10;;;;;;6184904;23;20096;-74
2023/03/10 10:19:39;;;;;;;11.40;2.72;;;13.70;95.90;;;;;;6185319;23;20028;-74
2023/03/10 10:22:29;;;;;;;11.63;2.90;;;13.70;95.80;;;;;;6185360;23;20004;-75
2023/03/10 10:25:12;;;;;;;9.30;2.15;;;13.70;95.80;;;;;;6184700;23;20012;-70
2023/03/10 10:27:41;;;;;;;12.10;2.60;;;13.70;95.60;;;;;;6185299;23;20268;-68
2023/03/10 10:30:37;;;;;;;13.40;2.67;;;13.80;95.00;;;;;;6186901;23;20016;-69
2023/03/10 10:33:04;;;;;;;11.70;3.00;;;13.80;95.00;;;;;;6187269;23;20008;-70
2023/03/10 10:35:36;;;;;;;9.10;2.70;;;13.90;94.90;;;;;;6187061;23;20020;-68
2023/03/10 10:38:04;;;;;;;12.65;2.75;;;13.90;94.70;;;;;;6187285;23;20047;-69
2023/03/10 10:40:33;;;;;;;11.15;2.65;;;13.90;94.50;;;;;;6187078;23;19997;-68
2023/03/10 10:43:00;;;;;;;11.00;2.42;;;13.90;94.60;;;;;;6187158;23;20008;-68
2023/03/10 10:45:30;;;;;;;9.52;2.80;;;13.90;94.50;;;;;;6187129;23;20020;-68
2023/03/10 10:47:56;;;;;;;13.15;2.75;;;13.90;94.60;;;;;;6187111;23;20008;-69
2023/03/10 10:50:27;;;;;;;9.75;2.75;;;13.90;94.50;;;;;;6187022;23;20001;-68
2023/03/10 10:53:18;;;;;;;12.13;2.47;;;13.90;94.50;;;;;;6187174;23;20028;-68
2023/03/10 10:55:47;;;;;;;13.57;2.50;;;13.90;94.40;;;;;;6187173;23;20007;-72
2023/03/10 10:58:35;;;;;;;11.57;2.70;;;13.90;94.30;;;;;;6186907;23;20043;-69
2023/03/10 11:01:11;;;;;;;12.38;3.03;;;13.90;94.20;;;;;;6186034;23;20001;-69
2023/03/10 11:03:39;;;;;;;11.20;2.55;;;13.80;94.00;;;;;;6186674;23;20012;-69
2023/03/10 11:06:20;;;;;;;11.93;2.50;;;13.80;94.10;;;;;;6186502;23;20323;-68
2023/03/10 11:08:49;;;;;;;19.88;3.13;;;13.80;94.40;;;;;;6186840;23;20005;-70
2023/03/10 11:11:22;;;;;;;13.68;2.60;;;13.80;94.80;;;;;;6185017;23;20335;-69
2023/03/10 11:14:18;;;;;;;13.98;3.22;;;13.80;95.10;;;;;;6183498;23;20009;-70
2023/03/10 11:17:00;;;;;;;12.85;2.58;;;13.90;95.20;;;;;;6183294;23;20078;-73
2023/03/10 11:20:05;;;;;;;8.68;2.10;;;13.80;95.10;;;;;;6186168;23;20001;-71
2023/03/10 11:22:49;;;;;;;11.32;2.55;;;13.80;95.00;;;;;;6186645;23;20001;-70
2023/03/10 11:25:18;;;;;;;12.40;3.17;;;13.80;95.00;;;;;;6186568;23;20071;-73
2023/03/10 11:28:02;;;;;;;18.67;3.53;;;13.80;94.90;;;;;;6186225;23;20001;-72
2023/03/10 11:30:32;;;;;;;14.40;2.97;;;13.80;94.80;;;;;;6186332;23;20382;-70
2023/03/10 11:33:22;;;;;;;13.20;2.80;;;13.70;94.80;;;;;;6186508;23;19997;-72
2023/03/10 11:35:51;;;;;;;13.98;2.53;;;13.80;94.80;;;;;;6186329;23;20039;-71
2023/03/10 11:38:41;;;;;;;12.27;2.70;;;13.70;94.70;;;;;;6184186;23;20016;-71
2023/03/10 11:41:18;;;;;;;10.27;2.42;;;13.70;94.90;;;;;;6182478;23;20005;-72
2023/03/10 11:44:01;;;;;;;14.32;3.63;;;13.70;94.60;;;;;;6182537;23;20404;-69
2023/03/10 11:46:29;;;;;;;;;;;13.70;94.60;;;;;;6183072;23;20067;-71
2023/03/10 11:49:11;;;;;;;12.20;2.95;;;13.70;94.70;;;;;;6180963;23;19900;-71
2023/03/10 11:51:42;;;;;;;14.15;3.10;;;13.70;94.80;;;;;;6183359;23;20006;-74
2023/03/10 11:54:30;;;;;;;11.98;2.70;;;13.70;94.80;;;;;;6185698;23;19997;-71
2023/03/10 11:56:58;;;;;;;12.02;2.60;;;13.70;94.90;;;;;;6185862;23;20097;-72
2023/03/10 11:59:27;;;;;;;14.18;3.10;;;13.70;95.10;;;;;;6186047;23;20013;-73
2023/03/10 12:02:06;;;;;;;14.00;2.80;;;13.70;95.20;;;;;;6185461;23;20490;-70
2023/03/10 12:04:56;;;;;;;11.45;2.58;;;13.70;95.30;;;;;;6185368;23;20021;-75
2023/03/10 12:07:37;;;;;;;13.07;2.67;;;13.70;95.20;;;;;;6185167;23;20028;-72
2023/03/10 12:10:11;;;;;;;12.85;2.60;;;13.70;95.30;;;;;;6185355;23;20008;-71
2023/03/10 12:12:39;;;;;;;8.18;2.20;;;13.70;95.40;;;;;;6186004;23;20001;-73
2023/03/10 12:15:35;;;;;;;12.40;2.47;;;13.80;95.50;;;;;;6185569;23;20012;-70
2023/03/10 12:18:03;;;;;;;13.70;2.90;;;13.80;95.40;;;;;;6185835;23;20051;-71
2023/03/10 12:20:31;;;;;;;11.13;2.40;;;13.80;95.20;;;;;;6186062;23;20005;-73
2023/03/10 12:23:09;;;;;;;6.82;2.20;;;13.90;95.40;;;;;;6185289;23;20079;-71
2023/03/10 12:25:36;;;;;;;10.10;2.22;;;14.00;95.40;;;;;;6183781;23;20001;-71
2023/03/10 12:28:15;;;;;;;10.30;2.80;;;14.00;95.20;;;;;;6185142;23;20046;-67
2023/03/10 12:30:47;;;;;;;9.30;2.35;;;14.10;95.20;;;;;;6183494;23;20435;-69
2023/03/10 12:33:37;;;;;;;7.47;2.20;;;14.10;95.30;;;;;;6185142;23;20020;-68
2023/03/10 12:36:17;;;;;;;10.90;2.10;;;14.20;95.20;;;;;;6184918;23;20005;-70
2023/03/10 12:38:53;;;;;;;9.27;2.17;;;14.20;95.00;;;;;;6184767;23;20096;-69
2023/03/10 12:41:25;;;;;;;7.80;2.20;;;14.30;95.20;;;;;;6185049;23;19997;-69
2023/03/10 12:43:55;;;;;;;7.50;1.80;;;14.30;95.00;;;;;;6182929;23;20503;-68
2023/03/10 12:46:41;;;;;;;7.95;2.00;;;14.30;94.60;;;;;;6184109;23;20408;-68